Time;durP1;ratioP1;P1;durP2;ratioP2;P2;SDS_P1;SDS_P2;PMS_P1;PMS_P2;Temp;Humidity;BMP_temperature;BMP_pressure;BME280_temperature;BME280_humidity;BME280_pressure;Samples;Min_cycle;Max_cycle;Signal;HPM_P1;HPM_P2
2023/05/12 00:02:06;;;;;;;8.27;4.33;;;;;;;12.10;100.00;101524.22;5076687;28;20110;-88
2023/05/12 00:04:40;;;;;;;7.33;4.37;;;;;;;11.99;100.00;101506.13;5076621;28;20025;-89
2023/05/12 00:07:06;;;;;;;6.78;3.95;;;;;;;12.00;100.00;101507.00;5076626;28;20070;-88
2023/05/12 00:09:43;;;;;;;5.50;3.40;;;;;;;11.94;100.00;101499.22;5076676;28;20024;-88
2023/05/12 00:12:18;;;;;;;4.28;3.20;;;;;;;11.99;100.00;101508.72;5075926;28;20484;-88
2023/05/12 00:14:43;;;;;;;4.05;2.92;;;;;;;12.04;100.00;101517.34;5075907;28;20031;-88
2023/05/12 00:17:15;;;;;;;3.00;2.50;;;;;;;11.98;100.00;101508.75;5075790;28;20028;-88
2023/05/12 00:19:47;;;;;;;3.40;2.60;;;;;;;12.05;100.00;101513.88;5075289;28;20081;-88
2023/05/12 00:22:16;;;;;;;3.95;2.60;;;;;;;12.03;100.00;101509.56;5074509;28;20040;-89
2023/05/12 00:24:41;;;;;;;8.10;3.63;;;;;;;11.93;100.00;101500.97;5075636;28;20083;-88
2023/05/12 00:27:06;;;;;;;6.77;3.70;;;;;;;11.89;100.00;101500.13;5075826;28;20021;-88
2023/05/12 00:29:32;;;;;;;7.53;4.40;;;;;;;11.86;100.00;101494.97;5075169;28;20456;-88
2023/05/12 00:31:58;;;;;;;7.87;4.30;;;;;;;11.80;100.00;101502.84;5075339;28;20036;-88
2023/05/12 00:34:23;;;;;;;8.27;4.73;;;;;;;11.78;100.00;101506.31;5075800;28;20270;-88
2023/05/12 00:36:48;;;;;;;8.77;5.17;;;;;;;11.70;100.00;101503.81;5075875;28;20055;-88
2023/05/12 00:39:14;;;;;;;10.47;5.57;;;;;;;11.70;100.00;101506.41;5074537;28;20020;-87
2023/05/12 00:41:39;;;;;;;10.30;5.67;;;;;;;11.67;100.00;101515.06;5075285;28;20085;-88
2023/05/12 00:44:04;;;;;;;9.27;5.40;;;;;;;11.53;100.00;101498.75;5075334;28;20052;-88
2023/05/12 00:46:30;;;;;;;7.50;4.60;;;;;;;11.54;100.00;101500.47;5074696;28;20081;-89
2023/05/12 00:49:06;;;;;;;7.90;4.80;;;;;;;11.56;100.00;101504.78;5075218;28;20024;-88
2023/05/12 00:51:44;;;;;;;8.40;4.45;;;;;;;11.59;100.00;101504.78;5075375;28;20028;-88
2023/05/12 00:54:10;;;;;;;7.20;4.32;;;;;;;11.62;100.00;101511.66;5074233;28;20020;-88
2023/05/12 00:56:38;;;;;;;5.63;3.53;;;;;;;11.57;100.00;101498.72;5075179;28;20051;-89
2023/05/12 00:59:07;;;;;;;3.95;2.97;;;;;;;11.65;100.00;101502.97;5075001;28;20146;-88
2023/05/12 01:01:33;;;;;;;8.32;4.90;;;;;;;11.61;100.00;101501.25;5074609;28;20037;-87
2023/05/12 01:04:01;;;;;;;7.70;4.63;;;;;;;11.57;100.00;101498.72;5074691;28;20102;-88
2023/05/12 01:06:37;;;;;;;7.60;4.30;;;;;;;11.54;100.00;101498.72;5075146;28;20024;-89
2023/05/12 01:09:02;;;;;;;10.38;5.45;;;;;;;11.50;100.00;101501.38;5074835;28;20032;-88
2023/05/12 01:11:28;;;;;;;10.37;5.40;;;;;;;11.47;100.00;101501.41;5074857;28;20024;-89
2023/05/12 01:13:59;;;;;;;8.87;5.47;;;;;;;11.43;100.00;101498.81;5074835;28;20021;-88
2023/05/12 01:16:35;;;;;;;12.15;6.63;;;;;;;11.36;100.00;101491.09;5074964;28;20491;-88
2023/05/12 01:19:05;;;;;;;13.60;6.50;;;;;;;11.36;100.00;101489.34;5074965;28;20061;-88
2023/05/12 01:21:35;;;;;;;10.07;5.90;;;;;;;11.33;100.00;101486.78;5074262;28;20047;-88
2023/05/12 01:24:06;;;;;;;12.88;6.25;;;;;;;11.31;100.00;101477.28;5076077;28;20516;-89
2023/05/12 01:26:34;;;;;;;12.50;6.85;;;;;;;11.27;100.00;101487.69;5075217;28;20025;-89
2023/05/12 01:29:01;;;;;;;15.32;8.05;;;;;;;11.19;100.00;101492.09;5074730;28;20469;-89
2023/05/12 01:31:36;;;;;;;;;;;;;;;11.19;100.00;101488.63;5075306;28;20021;-88
2023/05/12 01:34:01;;;;;;;12.70;7.00;;;;;;;11.19;100.00;101486.88;5075346;28;19938;-90
2023/05/12 01:36:28;;;;;;;13.03;6.97;;;;;;;11.06;100.00;101465.34;5074673;28;20477;-90
2023/05/12 01:38:58;;;;;;;13.90;7.20;;;;;;;11.08;100.00;101465.31;5075223;28;20050;-89
2023/05/12 01:41:24;;;;;;;11.88;6.45;;;;;;;11.13;100.00;101476.56;5079365;28;20035;-90
2023/05/12 01:44:08;;;;;;;13.23;6.80;;;;;;;11.14;100.00;101475.69;5081204;28;20021;-91
2023/05/12 01:46:43;;;;;;;14.85;6.93;;;;;;;11.06;100.00;101469.66;5082007;28;20048;-90
2023/05/12 01:49:08;;;;;;;14.32;7.53;;;;;;;11.04;100.00;101476.59;5081838;28;20051;-90
2023/05/12 01:51:35;;;;;;;11.50;6.37;;;;;;;11.01;100.00;101469.69;5081689;28;20025;-90
2023/05/12 01:54:04;;;;;;;10.35;5.68;;;;;;;11.01;100.00;101466.25;5081275;28;20063;-90
2023/05/12 01:56:29;;;;;;;11.52;5.80;;;;;;;11.08;100.00;101473.13;5081403;28;20082;-91
2023/05/12 01:58:57;;;;;;;9.73;5.10;;;;;;;11.05;100.00;101471.41;5081319;28;20020;-90
2023/05/12 02:01:27;;;;;;;7.90;4.70;;;;;;;11.01;100.00;101461.06;5081775;28;20040;-90
2023/05/12 02:04:07;;;;;;;7.32;4.18;;;;;;;11.01;100.00;101464.50;5080938;28;20025;-90
2023/05/12 02:06:33;;;;;;;9.02;5.07;;;;;;;10.99;100.00;101455.84;5081227;28;20454;-90
2023/05/12 02:08:59;;;;;;;9.53;5.20;;;;;;;11.00;100.00;101454.13;5081095;28;20123;-90
2023/05/12 02:11:28;;;;;;;11.35;5.72;;;;;;;10.94;100.00;101448.09;5081190;28;20021;-90
2023/05/12 02:13:53;;;;;;;10.40;5.57;;;;;;;10.87;100.00;101451.63;5081531;28;20157;-90
2023/05/12 02:16:19;;;;;;;9.77;5.27;;;;;;;10.84;100.00;101445.59;5081506;28;20119;-90
2023/05/12 02:18:48;;;;;;;12.98;6.30;;;;;;;10.84;100.00;101453.38;5080563;28;20055;-90
2023/05/12 02:21:13;;;;;;;9.45;5.00;;;;;;;10.83;100.00;101449.91;5080753;28;20461;-89
2023/05/12 02:23:39;;;;;;;9.70;5.10;;;;;;;10.83;100.00;101449.91;5081317;28;20032;-90
2023/05/12 02:26:30;;;;;;;6.97;4.20;;;;;;;10.76;100.00;101443.88;5081111;28;20023;-90
2023/05/12 02:28:59;;;;;;;8.65;4.65;;;;;;;10.75;100.00;101442.16;5076737;28;20037;-91
2023/05/12 02:31:24;;;;;;;6.05;3.67;;;;;;;10.80;100.00;101448.19;5063064;28;20032;-91
2023/05/12 02:33:50;;;;;;;8.60;4.77;;;;;;;10.78;100.00;101443.91;5081499;28;20377;-91
2023/05/12 02:36:16;;;;;;;7.27;4.17;;;;;;;10.77;100.00;101445.63;5081100;28;20495;-91
2023/05/12 02:38:53;;;;;;;8.70;4.93;;;;;;;10.71;100.00;101442.19;5080349;28;20041;-90
2023/05/12 02:41:25;;;;;;;9.52;4.90;;;;;;;10.70;100.00;101443.06;5080753;28;20065;-91
2023/05/12 02:43:50;;;;;;;7.72;4.40;;;;;;;10.70;100.00;101433.56;5081606;28;20070;-92
2023/05/12 02:46:16;;;;;;;7.30;4.00;;;;;;;10.73;100.00;101443.94;5080614;28;20372;-91
2023/05/12 02:48:47;;;;;;;6.00;3.67;;;;;;;10.64;100.00;101412.81;5081208;28;20020;-92
2023/05/12 02:51:13;;;;;;;6.18;3.65;;;;;;;10.75;100.00;101436.13;5081438;28;20376;-92
2023/05/12 02:53:38;;;;;;;7.50;4.30;;;;;;;10.66;100.00;101422.34;5077128;28;20103;-93
2023/05/12 02:56:07;;;;;;;7.65;4.40;;;;;;;10.63;100.00;101419.75;5077965;28;20021;-92
2023/05/12 02:58:44;;;;;;;7.18;3.75;;;;;;;10.66;100.00;101416.25;5077877;28;20039;-93
2023/05/12 03:01:10;;;;;;;7.15;4.00;;;;;;;10.63;100.00;101411.97;5078225;28;20480;-92
2023/05/12 03:03:35;;;;;;;7.83;4.10;;;;;;;10.64;100.00;101407.63;5077820;28;20044;-92
2023/05/12 03:06:00;;;;;;;6.77;4.00;;;;;;;10.67;100.00;101418.00;5077310;28;20031;-92
2023/05/12 03:08:35;;;;;;;6.47;3.57;;;;;;;10.69;100.00;101413.66;5077217;28;20078;-91
2023/05/12 03:11:00;;;;;;;5.60;3.53;;;;;;;10.60;100.00;101406.78;5076779;28;20024;-91
2023/05/12 03:13:28;;;;;;;5.43;3.23;;;;;;;10.60;100.00;101400.75;5077201;28;20066;-91
2023/05/12 03:16:00;;;;;;;5.18;3.00;;;;;;;10.62;100.00;101401.59;5076982;28;20021;-90
2023/05/12 03:18:26;;;;;;;6.00;3.53;;;;;;;10.56;100.00;101386.03;5076936;28;20077;-91
2023/05/12 03:20:51;;;;;;;7.07;3.95;;;;;;;10.56;100.00;101399.91;5069688;28;20044;-90
2023/05/12 03:23:18;;;;;;;4.33;3.10;;;;;;;10.58;100.00;101397.28;5074960;28;20048;-90
2023/05/12 03:25:43;;;;;;;4.75;3.05;;;;;;;10.63;100.00;101398.97;5075957;28;20510;-90
2023/05/12 03:28:08;;;;;;;5.03;3.40;;;;;;;10.63;100.00;101390.34;5075566;28;20111;-89
2023/05/12 03:30:43;;;;;;;3.97;3.10;;;;;;;10.72;100.00;101411.03;5075919;28;20086;-89
2023/05/12 03:33:09;;;;;;;5.32;3.30;;;;;;;10.72;100.00;101400.66;5075821;28;20128;-89
2023/05/12 03:35:34;;;;;;;5.23;3.30;;;;;;;10.69;100.00;101400.69;5075086;28;20448;-89
2023/05/12 03:37:59;;;;;;;6.90;3.80;;;;;;;10.72;100.00;101397.19;5075509;28;20047;-89
2023/05/12 03:40:25;;;;;;;5.70;3.47;;;;;;;10.71;100.00;101395.47;5075283;28;20365;-89
2023/05/12 03:42:51;;;;;;;6.27;3.43;;;;;;;10.75;100.00;101399.78;5075105;28;20032;-88
2023/05/12 03:45:16;;;;;;;6.77;3.70;;;;;;;10.77;100.00;101398.03;5075388;28;20020;-88
2023/05/12 03:47:42;;;;;;;7.57;3.83;;;;;;;10.75;100.00;101395.44;5075312;28;20529;-89
2023/05/12 03:50:07;;;;;;;6.20;3.50;;;;;;;10.77;100.00;101398.03;5074794;28;20029;-88
2023/05/12 03:52:33;;;;;;;7.07;3.97;;;;;;;10.72;100.00;101392.88;5075444;28;20028;-88
2023/05/12 03:54:58;;;;;;;6.87;3.73;;;;;;;10.77;100.00;101388.50;5075425;28;20021;-89
2023/05/12 03:57:26;;;;;;;11.67;5.20;;;;;;;10.73;100.00;101391.13;5074301;28;20032;-88
2023/05/12 03:59:51;;;;;;;10.38;4.90;;;;;;;10.72;100.00;101384.22;5075123;28;20050;-88
2023/05/12 04:02:17;;;;;;;12.67;5.40;;;;;;;10.74;100.00;101385.94;5074556;28;20032;-87
2023/05/12 04:04:42;;;;;;;12.80;5.87;;;;;;;10.69;100.00;101385.09;5074458;28;20024;-88
2023/05/12 04:07:07;;;;;;;12.27;5.57;;;;;;;10.71;100.00;101385.06;5074821;28;20107;-88
2023/05/12 04:09:33;;;;;;;13.43;6.17;;;;;;;10.63;100.00;101369.59;5074370;28;20032;-88
2023/05/12 04:11:59;;;;;;;11.83;5.40;;;;;;;10.73;100.00;101389.41;5075143;28;20036;-88
2023/05/12 04:14:24;;;;;;;12.40;5.80;;;;;;;10.75;100.00;101390.22;5074421;28;20039;-88
2023/05/12 04:16:49;;;;;;;12.87;5.93;;;;;;;10.74;100.00;101385.06;5074057;28;20056;-88
2023/05/12 04:19:14;;;;;;;14.33;5.93;;;;;;;10.71;100.00;101385.97;5074391;28;20362;-88
2023/05/12 04:21:40;;;;;;;14.63;6.70;;;;;;;10.69;100.00;101384.25;5074096;28;20052;-88
2023/05/12 04:24:05;;;;;;;16.73;7.63;;;;;;;10.69;100.00;101379.91;5073726;28;20060;-88
2023/05/12 04:26:30;;;;;;;16.10;6.43;;;;;;;10.69;100.00;101379.91;5074037;28;20055;-88
2023/05/12 04:28:56;;;;;;;13.43;5.80;;;;;;;10.71;100.00;101385.06;5074824;28;20091;-88
2023/05/12 04:31:21;;;;;;;16.27;6.50;;;;;;;10.71;100.00;101379.88;5074286;28;20025;-88
2023/05/12 04:33:46;;;;;;;16.67;7.17;;;;;;;10.73;100.00;101389.41;5074384;28;20085;-88
2023/05/12 04:36:14;;;;;;;17.77;8.03;;;;;;;10.73;100.00;101380.75;5074685;28;20028;-88
2023/05/12 04:38:40;;;;;;;20.15;8.93;;;;;;;10.75;100.00;101379.00;5073865;28;20024;-90
2023/05/12 04:41:06;;;;;;;18.73;7.97;;;;;;;10.72;100.00;101385.09;5074224;28;20067;-89
2023/05/12 04:43:32;;;;;;;17.70;7.68;;;;;;;10.77;100.00;101390.25;5074153;28;20460;-88
2023/05/12 04:45:57;;;;;;;19.83;8.40;;;;;;;10.72;100.00;101374.69;5073235;28;20047;-89
2023/05/12 04:48:26;;;;;;;18.93;8.30;;;;;;;10.77;100.00;101385.03;5073922;28;20035;-88
2023/05/12 04:50:51;;;;;;;18.13;8.25;;;;;;;10.79;100.00;101393.69;5074278;28;20025;-88
2023/05/12 04:53:17;;;;;;;17.70;7.73;;;;;;;10.80;100.00;101390.22;5073390;28;20461;-89
2023/05/12 04:55:44;;;;;;;20.13;9.77;;;;;;;10.82;100.00;101396.25;5074368;28;20025;-89
2023/05/12 04:58:12;;;;;;;19.10;8.32;;;;;;;10.80;100.00;101391.06;5074079;28;20107;-88
2023/05/12 05:00:38;;;;;;;19.02;8.40;;;;;;;10.85;100.00;101396.22;5073432;28;20047;-88
2023/05/12 05:03:04;;;;;;;22.33;11.07;;;;;;;10.84;100.00;101391.91;5074237;28;20457;-88
2023/05/12 05:05:29;;;;;;;22.37;11.00;;;;;;;10.84;100.00;101404.88;5074014;28;20017;-87
2023/05/12 05:07:55;;;;;;;23.10;11.93;;;;;;;10.75;100.00;101382.44;5073180;28;20025;-89
2023/05/12 05:10:20;;;;;;;22.33;11.43;;;;;;;10.88;100.00;101414.41;5074023;28;20069;-88
2023/05/12 05:12:46;;;;;;;23.23;11.23;;;;;;;10.90;100.00;101399.66;5073039;28;20029;-88
2023/05/12 05:15:11;;;;;;;23.03;11.50;;;;;;;10.91;100.00;101408.31;5073532;28;20022;-89
2023/05/12 05:17:37;;;;;;;20.60;9.07;;;;;;;10.92;100.00;101407.44;5073703;28;20101;-88
2023/05/12 05:20:02;;;;;;;21.40;10.17;;;;;;;10.96;100.00;101409.16;5072952;28;20048;-88
2023/05/12 05:22:30;;;;;;;21.63;10.10;;;;;;;10.98;100.00;101409.97;5073389;28;20135;-88
2023/05/12 05:24:56;;;;;;;19.48;9.25;;;;;;;11.04;100.00;101412.53;5073721;28;20027;-88
2023/05/12 05:27:21;;;;;;;21.70;11.27;;;;;;;11.09;100.00;101407.31;5073210;28;20024;-88
2023/05/12 05:29:46;;;;;;;22.67;11.67;;;;;;;11.06;100.00;101416.00;5073574;28;20056;-88
2023/05/12 05:32:12;;;;;;;23.27;12.10;;;;;;;11.11;100.00;101421.16;5073599;28;20024;-89
2023/05/12 05:34:37;;;;;;;24.87;12.80;;;;;;;11.10;100.00;101409.03;5073050;28;20023;-88
2023/05/12 05:37:02;;;;;;;23.00;11.47;;;;;;;11.15;100.00;101415.03;5073243;28;20017;-88
2023/05/12 05:39:29;;;;;;;21.20;10.43;;;;;;;11.21;100.00;101427.97;5073082;28;20493;-88
2023/05/12 05:41:56;;;;;;;25.27;14.13;;;;;;;11.21;100.00;101424.50;5073251;28;20074;-88
2023/05/12 05:44:21;;;;;;;26.38;14.55;;;;;;;11.26;100.00;101431.38;5073550;28;20044;-88
2023/05/12 05:46:46;;;;;;;28.27;14.70;;;;;;;11.28;100.00;101426.19;5073588;28;20369;-88
2023/05/12 05:49:12;;;;;;;25.30;13.97;;;;;;;11.32;100.00;101434.81;5072887;28;20051;-88
2023/05/12 05:51:37;;;;;;;28.43;15.97;;;;;;;11.35;100.00;101435.66;5073371;28;20020;-88
2023/05/12 05:54:02;;;;;;;25.90;13.77;;;;;;;11.42;100.00;101441.66;5073547;28;20108;-88
2023/05/12 05:56:29;;;;;;;26.80;15.17;;;;;;;11.44;100.00;101427.75;5072770;28;20069;-88
2023/05/12 05:58:55;;;;;;;27.70;15.68;;;;;;;11.50;100.00;101441.59;5073609;28;20024;-89
2023/05/12 06:01:21;;;;;;;29.70;17.25;;;;;;;11.54;100.00;101449.34;5073623;28;20028;-88
2023/05/12 06:03:46;;;;;;;27.73;16.13;;;;;;;11.59;100.00;101447.56;5072542;28;20111;-88
2023/05/12 06:06:11;;;;;;;32.00;18.43;;;;;;;11.58;100.00;101452.78;5073386;28;20025;-88
2023/05/12 06:08:36;;;;;;;31.80;18.87;;;;;;;11.61;100.00;101449.25;5073201;28;20032;-89
2023/05/12 06:11:02;;;;;;;30.60;17.47;;;;;;;11.68;100.00;101450.94;5072399;28;20028;-88
2023/05/12 06:13:33;;;;;;;27.73;16.07;;;;;;;11.71;100.00;101450.91;5073461;28;20013;-89
2023/05/12 06:15:58;;;;;;;32.38;18.73;;;;;;;11.79;100.00;101469.03;5073150;28;20021;-88
2023/05/12 06:18:25;;;;;;;31.23;19.17;;;;;;;11.79;100.00;101459.50;5072631;28;20028;-88
2023/05/12 06:20:56;;;;;;;30.85;17.27;;;;;;;11.89;100.00;101468.03;5073042;28;20043;-89
2023/05/12 06:23:21;;;;;;;30.98;18.23;;;;;;;11.87;100.00;101467.22;5072260;28;20040;-88
2023/05/12 06:25:49;;;;;;;31.30;18.37;;;;;;;11.95;100.00;101467.13;5072859;28;20124;-89
2023/05/12 06:28:17;;;;;;;31.02;19.80;;;;;;;12.04;100.00;101487.88;5074469;28;20508;-87
2023/05/12 06:30:42;;;;;;;32.15;20.27;;;;;;;12.15;100.00;101480.81;5075782;28;20078;-89
2023/05/12 06:33:07;;;;;;;31.10;18.43;;;;;;;12.13;100.00;101473.88;5076991;28;20016;-89
2023/05/12 06:35:33;;;;;;;30.93;18.97;;;;;;;12.27;100.00;101491.97;5076802;28;20029;-88
2023/05/12 06:37:58;;;;;;;31.47;20.10;;;;;;;12.32;100.00;101496.25;5076013;28;20090;-87
2023/05/12 06:40:23;;;;;;;29.00;18.23;;;;;;;12.38;100.00;101492.69;5076613;28;20415;-88
2023/05/12 06:42:49;;;;;;;30.33;19.10;;;;;;;12.46;100.00;101497.78;5076727;28;20051;-89
2023/05/12 06:45:14;;;;;;;29.03;18.97;;;;;;;12.49;100.00;101505.56;5076576;28;20017;-88
2023/05/12 06:47:40;;;;;;;29.30;19.00;;;;;;;12.60;100.00;101510.66;5076641;28;20028;-87
2023/05/12 06:50:07;;;;;;;29.10;19.10;;;;;;;12.68;100.00;101508.78;5076352;28;20032;-88
2023/05/12 06:52:32;;;;;;;29.10;20.10;;;;;;;12.76;100.00;101509.53;5075753;28;20025;-89
2023/05/12 06:54:57;;;;;;;27.03;18.57;;;;;;;12.81;100.00;101507.75;5076287;28;20103;-89
2023/05/12 06:57:23;;;;;;;27.80;18.77;;;;;;;12.92;100.00;101512.78;5076428;28;20028;-89
2023/05/12 06:59:48;;;;;;;28.00;19.03;;;;;;;13.00;100.00;101517.06;5075686;28;20031;-87
2023/05/12 07:02:13;;;;;;;27.30;18.87;;;;;;;13.09;100.00;101522.13;5076686;28;20052;-89
2023/05/12 07:04:38;;;;;;;25.97;18.00;;;;;;;13.12;100.00;101520.31;5076495;28;20039;-87
2023/05/12 07:07:04;;;;;;;25.97;18.27;;;;;;;13.13;100.00;101527.25;5075797;28;20111;-87
2023/05/12 07:09:29;;;;;;;27.53;19.53;;;;;;;13.14;100.00;101522.91;5075951;28;20024;-88
2023/05/12 07:11:54;;;;;;;26.27;17.73;;;;;;;13.23;100.00;101516.69;5076086;28;20016;-88
2023/05/12 07:14:23;;;;;;;25.90;18.53;;;;;;;13.25;100.00;101528.81;5075400;28;20024;-88
2023/05/12 07:16:48;;;;;;;25.13;18.35;;;;;;;13.26;100.00;101535.75;5075966;28;20420;-89
2023/05/12 07:19:14;;;;;;;24.53;17.67;;;;;;;13.28;100.00;101536.59;5075923;28;20023;-88
2023/05/12 07:21:39;;;;;;;22.57;15.63;;;;;;;13.38;100.00;101536.44;5075344;28;20512;-87
2023/05/12 07:24:05;;;;;;;23.23;16.83;;;;;;;13.42;100.00;101531.19;5075563;28;20031;-88
2023/05/12 07:26:30;;;;;;;23.60;15.93;;;;;;;13.53;100.00;101536.22;5075342;28;20017;-88
2023/05/12 07:28:56;;;;;;;20.90;14.03;;;;;;;13.66;100.00;101538.63;5076014;28;20032;-88
2023/05/12 07:31:21;;;;;;;21.00;13.97;;;;;;;13.73;100.00;101533.28;5075507;28;20082;-87
2023/05/12 07:33:50;;;;;;;20.53;13.60;;;;;;;13.83;100.00;101533.13;5074896;28;20033;-87
2023/05/12 07:36:15;;;;;;;19.55;11.40;;;;;;;13.98;100.00;101537.19;5075665;28;20051;-89
2023/05/12 07:38:40;;;;;;;20.87;12.07;;;;;;;14.18;100.00;101539.44;5075396;28;20037;-88
2023/05/12 07:41:20;;;;;;;19.00;11.40;;;;;;;14.41;100.00;101546.81;5074959;28;20028;-87
2023/05/12 07:44:03;;;;;;;16.98;9.45;;;;;;;14.38;100.00;101530.34;5075365;28;20028;-88
2023/05/12 07:46:38;;;;;;;17.33;10.20;;;;;;;14.25;96.88;101545.38;5075305;28;20024;-86
2023/05/12 07:49:03;;;;;;;16.85;8.93;;;;;;;14.01;95.67;101550.19;5074056;28;20417;-86
2023/05/12 07:51:28;;;;;;;16.67;9.23;;;;;;;14.00;97.88;101538.88;5074883;28;20059;-87
2023/05/12 07:54:00;;;;;;;15.13;8.07;;;;;;;14.10;100.00;101546.53;5075300;28;20477;-87
2023/05/12 07:56:25;;;;;;;14.35;8.05;;;;;;;14.13;97.14;101564.75;5074439;28;20033;-87
2023/05/12 07:58:51;;;;;;;13.27;7.93;;;;;;;14.17;98.01;101558.59;5074787;28;20126;-88
2023/05/12 08:01:25;;;;;;;15.47;8.80;;;;;;;14.03;95.00;101556.22;5074615;28;20028;-86
2023/05/12 08:04:05;;;;;;;15.15;8.65;;;;;;;14.11;96.08;101550.88;5074068;28;20076;-86
2023/05/12 08:06:46;;;;;;;14.00;8.05;;;;;;;14.19;95.68;101542.00;5074862;28;20044;-87
2023/05/12 08:09:24;;;;;;;12.27;7.40;;;;;;;14.33;97.22;101556.56;5073064;28;20480;-86
2023/05/12 08:11:49;;;;;;;13.43;8.35;;;;;;;14.40;92.20;101570.34;5074616;28;20027;-87
2023/05/12 08:14:15;;;;;;;14.63;8.87;;;;;;;14.44;92.53;101577.22;5074622;28;20104;-86
2023/05/12 08:16:41;;;;;;;14.37;8.63;;;;;;;14.41;92.76;101580.75;5073979;28;20480;-86
2023/05/12 08:19:07;;;;;;;13.95;8.80;;;;;;;14.46;92.50;101567.59;5072398;28;20051;-87
2023/05/12 08:21:33;;;;;;;14.67;9.30;;;;;;;14.47;90.36;101566.72;5074086;28;20033;-87
2023/05/12 08:23:59;;;;;;;;;;;;;;;14.62;91.56;101569.03;5074176;28;20389;-87
2023/05/12 08:26:24;;;;;;;14.50;9.03;;;;;;;14.69;89.45;101571.53;5074487;28;19957;-86
2023/05/12 08:28:49;;;;;;;14.83;8.80;;;;;;;14.61;91.32;101572.53;5074307;28;20031;-86
2023/05/12 08:31:15;;;;;;;11.27;7.57;;;;;;;14.71;92.51;101574.97;5073477;28;20038;-87
2023/05/12 08:33:40;;;;;;;13.03;7.87;;;;;;;14.67;91.36;101569.81;5074372;28;20116;-87
2023/05/12 08:36:23;;;;;;;13.07;7.60;;;;;;;14.70;88.80;101575.88;5074270;28;20029;-87
2023/05/12 08:38:49;;;;;;;8.68;5.80;;;;;;;14.83;91.29;101582.56;5073387;28;20038;-87
2023/05/12 08:41:39;;;;;;;11.80;6.70;;;;;;;14.97;86.20;101585.72;5074000;28;20025;-86
2023/05/12 08:44:05;;;;;;;9.82;6.30;;;;;;;15.12;88.40;101588.91;5053947;28;20036;-87
2023/05/12 08:46:31;;;;;;;11.05;6.50;;;;;;;15.17;85.70;101589.66;5053694;28;20140;-87
2023/05/12 08:48:59;;;;;;;10.37;6.40;;;;;;;15.31;85.71;101584.13;5054197;28;20029;-86
2023/05/12 08:51:27;;;;;;;8.18;5.35;;;;;;;15.48;86.68;101591.56;5052210;28;20465;-87
2023/05/12 08:53:54;;;;;;;7.90;5.22;;;;;;;15.69;84.43;101591.94;5053892;28;20389;-87
2023/05/12 08:56:21;;;;;;;;;;;;;;;15.86;86.59;101597.66;5054438;28;20053;-87
2023/05/12 08:58:47;;;;;;;7.28;4.30;;;;;;;16.06;84.39;101601.50;5053171;28;19912;-86
2023/05/12 09:01:14;;;;;;;8.35;4.38;;;;;;;16.13;82.42;101594.34;5053875;28;20072;-87
2023/05/12 09:03:40;;;;;;;7.93;4.90;;;;;;;16.13;81.93;101596.97;5053983;28;20028;-86
2023/05/12 09:06:07;;;;;;;7.83;5.23;;;;;;;16.21;78.33;101595.84;5053723;28;20457;-87
2023/05/12 09:08:33;;;;;;;8.35;4.80;;;;;;;16.21;79.73;101589.75;5053764;28;20147;-87
2023/05/12 09:11:00;;;;;;;7.55;4.93;;;;;;;16.17;77.79;101588.09;5054760;28;20047;-86
2023/05/12 09:13:39;;;;;;;7.18;4.25;;;;;;;16.17;77.54;101598.59;5052901;28;20025;-86
2023/05/12 09:16:10;;;;;;;6.65;4.45;;;;;;;16.20;76.67;101608.97;5053976;28;20056;-87
2023/05/12 09:18:57;;;;;;;7.78;4.55;;;;;;;16.35;77.73;101599.84;5053520;28;20029;-87
2023/05/12 09:21:22;;;;;;;;;;;;;;;16.55;78.95;101601.91;5053453;28;20032;-87
2023/05/12 09:23:56;;;;;;;7.15;4.68;;;;;;;16.70;77.43;101595.38;5053636;28;20276;-86
2023/05/12 09:26:22;;;;;;;7.57;4.40;;;;;;;16.68;74.37;101607.66;5052968;28;20069;-86
2023/05/12 09:28:52;;;;;;;7.63;4.18;;;;;;;16.75;76.49;101600.47;5053867;28;20032;-87
2023/05/12 09:31:22;;;;;;;5.63;3.90;;;;;;;16.86;77.45;101605.44;5054053;28;20029;-87
2023/05/12 09:33:49;;;;;;;6.68;4.13;;;;;;;16.85;73.85;101612.41;5053630;28;20028;-88
2023/05/12 09:36:21;;;;;;;;;;;;;;;16.88;76.71;101599.22;5053964;28;20060;-87
2023/05/12 09:38:58;;;;;;;4.80;3.35;;;;;;;17.10;78.04;101602.09;5054106;28;19913;-88
2023/05/12 09:41:24;;;;;;;6.72;3.88;;;;;;;17.12;74.24;101597.66;5053398;28;20025;-88
2023/05/12 09:43:51;;;;;;;5.50;3.83;;;;;;;17.36;77.99;101600.41;5053568;28;20099;-88
2023/05/12 09:46:17;;;;;;;4.35;3.40;;;;;;;17.37;68.91;101612.63;5053763;28;20419;-88
2023/05/12 09:48:46;;;;;;;7.33;3.60;;;;;;;17.41;70.37;101610.75;5053982;28;20028;-88
2023/05/12 09:51:11;;;;;;;5.10;3.50;;;;;;;17.34;69.60;101604.84;5053822;28;20025;-88
2023/05/12 09:53:41;;;;;;;6.37;3.30;;;;;;;17.54;69.82;101606.00;5054209;28;20350;-88
2023/05/12 09:56:17;;;;;;;5.10;3.30;;;;;;;17.60;69.13;101616.28;5052754;28;20040;-88
2023/05/12 09:58:45;;;;;;;6.07;3.95;;;;;;;17.44;68.19;101622.03;5053595;28;20439;-88
2023/05/12 10:01:12;;;;;;;7.30;3.78;;;;;;;17.62;71.06;101611.84;5053289;28;20381;-89
2023/05/12 10:03:41;;;;;;;4.70;3.40;;;;;;;17.81;70.49;101614.72;5057584;28;20032;-89
2023/05/12 10:06:13;;;;;;;6.53;3.60;;;;;;;17.79;66.23;101621.78;5057073;28;20029;-88
2023/05/12 10:08:47;;;;;;;5.72;3.60;;;;;;;17.56;69.28;101628.66;5057675;28;20076;-89
2023/05/12 10:11:13;;;;;;;5.97;3.55;;;;;;;17.26;66.89;101622.59;5057837;28;20027;-86
2023/05/12 10:13:39;;;;;;;4.30;3.40;;;;;;;17.42;71.67;101621.22;5057564;28;20021;-90
2023/05/12 10:16:05;;;;;;;5.82;3.42;;;;;;;17.62;69.05;101626.75;5056733;28;20028;-88
2023/05/12 10:18:32;;;;;;;;;;;;;;;17.78;69.41;101629.72;5057484;28;20033;-88
2023/05/12 10:20:58;;;;;;;;;;;;;;;18.05;69.33;101620.94;5057987;28;19917;-88
2023/05/12 10:23:24;;;;;;;4.38;3.10;;;;;;;18.26;68.85;101630.75;5056431;28;20011;-87
2023/05/12 10:25:50;;;;;;;5.68;3.47;;;;;;;18.04;64.33;101627.09;5057416;28;20576;-88
2023/05/12 10:28:18;;;;;;;6.05;3.10;;;;;;;18.13;66.73;101631.19;5058145;28;20045;-88
2023/05/12 10:30:44;;;;;;;6.65;3.30;;;;;;;17.97;68.32;101630.84;5056522;28;20488;-88
2023/05/12 10:33:10;;;;;;;5.18;3.22;;;;;;;17.98;64.41;101627.31;5057087;28;20462;-88
2023/05/12 10:35:36;;;;;;;3.43;2.80;;;;;;;18.25;66.95;101623.78;5056768;28;20046;-90
2023/05/12 10:38:10;;;;;;;;;;;;;;;18.24;67.69;101632.56;5056403;28;20028;-88
2023/05/12 10:40:52;;;;;;;5.45;3.40;;;;;;;17.94;64.53;101635.31;5056693;28;19948;-88
2023/05/12 10:43:21;;;;;;;5.78;3.40;;;;;;;18.00;66.33;101629.88;5056914;28;20021;-89
2023/05/12 10:46:28;;;;;;;7.97;3.70;;;;;;;17.91;63.73;101644.13;5056464;28;20021;-88
2023/05/12 10:49:04;;;;;;;5.18;3.53;;;;;;;17.90;65.66;101634.56;5057597;28;20037;-88
2023/05/12 10:51:45;;;;;;;7.60;3.85;;;;;;;17.94;64.68;101641.41;5056323;28;20051;-88
2023/05/12 10:54:17;;;;;;;4.30;3.30;;;;;;;18.01;64.66;101634.22;5056310;28;20470;-86
2023/05/12 10:56:43;;;;;;;6.20;3.58;;;;;;;17.90;66.70;101631.94;5056734;28;20068;-86
2023/05/12 10:59:13;;;;;;;7.03;3.85;;;;;;;17.81;66.39;101638.34;5055387;28;20044;-87
2023/05/12 11:01:40;;;;;;;6.43;4.05;;;;;;;17.61;68.17;101633.75;5056104;28;20048;-89
2023/05/12 11:04:08;;;;;;;;;;;;;;;17.63;67.63;101631.06;5056971;28;20445;-88
2023/05/12 11:06:34;;;;;;;5.95;3.97;;;;;;;17.57;67.75;101642.63;5055507;28;19935;-87
2023/05/12 11:08:59;;;;;;;6.20;4.20;;;;;;;17.10;67.34;101628.31;5056518;28;20465;-88
2023/05/12 11:11:25;;;;;;;6.00;3.60;;;;;;;17.27;68.99;101645.31;5055476;28;20033;-86
2023/05/12 11:13:50;;;;;;;8.20;4.20;;;;;;;17.17;67.09;101652.56;5055855;28;20106;-88
2023/05/12 11:16:15;;;;;;;6.37;4.07;;;;;;;17.28;66.18;101652.28;5056102;28;20148;-86
2023/05/12 11:18:41;;;;;;;6.27;4.10;;;;;;;17.35;66.14;101655.56;5055363;28;20021;-87
2023/05/12 11:21:16;;;;;;;5.33;3.63;;;;;;;17.48;67.42;101656.91;5055900;28;20017;-87